Time;durP1;ratioP1;P1;durP2;ratioP2;P2;SDS_P1;SDS_P2;PMS_P1;PMS_P2;Temp;Humidity;BMP_temperature;BMP_pressure;BME280_temperature;BME280_humidity;BME280_pressure;Samples;Min_cycle;Max_cycle;Signal;HPM_P1;HPM_P2
2023/08/15 00:01:57;;;;;;;6.32;4.10;;;;;;;21.40;46.61;95055.22;5112410;28;20540;-77
2023/08/15 00:04:23;;;;;;;5.43;4.00;;;;;;;21.35;48.91;95056.75;5095355;28;20092;-78
2023/08/15 00:06:48;;;;;;;5.80;3.70;;;;;;;21.41;47.35;95046.28;5120112;27;20480;-77
2023/08/15 00:09:13;;;;;;;5.50;4.15;;;;;;;21.50;47.16;95054.06;5115535;27;20558;-77
2023/08/15 00:11:39;;;;;;;5.03;4.20;;;;;;;21.47;47.30;95057.91;5098620;27;20031;-77
2023/08/15 00:14:04;;;;;;;5.22;4.28;;;;;;;21.46;46.98;95052.81;5134073;27;20035;-77
2023/08/15 00:16:30;;;;;;;4.53;3.80;;;;;;;21.57;46.14;95041.75;5133557;27;20019;-77
2023/08/15 00:18:55;;;;;;;7.20;4.40;;;;;;;21.53;46.76;95043.13;5132634;27;20504;-78
2023/08/15 00:21:20;;;;;;;5.32;4.30;;;;;;;21.42;45.88;95029.44;5115512;27;20031;-77
2023/08/15 00:23:46;;;;;;;5.53;4.35;;;;;;;21.47;45.73;95025.38;5115448;27;20034;-77
2023/08/15 00:26:11;;;;;;;7.18;4.28;;;;;;;21.48;45.59;95019.09;5132635;27;20036;-77
2023/08/15 00:28:37;;;;;;;4.70;3.60;;;;;;;21.51;45.81;95024.03;5132625;27;20031;-77
2023/08/15 00:31:02;;;;;;;5.97;4.10;;;;;;;21.49;46.44;95024.19;5131934;27;20477;-77
2023/08/15 00:33:28;;;;;;;7.15;4.38;;;;;;;21.34;46.22;95018.09;5133435;27;20027;-77
2023/08/15 00:35:53;;;;;;;6.13;3.97;;;;;;;21.42;45.96;95016.22;5115280;27;20043;-78
2023/08/15 00:38:18;;;;;;;6.45;4.45;;;;;;;21.37;45.83;95010.69;5113276;28;20151;-77
2023/08/15 00:40:44;;;;;;;5.32;4.35;;;;;;;21.41;45.50;95017.19;5078249;27;20027;-77
2023/08/15 00:43:10;;;;;;;5.07;4.40;;;;;;;21.28;45.65;95005.66;5132123;27;20027;-77
2023/08/15 00:45:38;;;;;;;6.13;4.13;;;;;;;21.27;45.41;95004.84;5133398;27;20027;-77
2023/08/15 00:48:05;;;;;;;5.72;4.55;;;;;;;21.26;45.69;94992.66;5106320;28;20062;-77
2023/08/15 00:50:30;;;;;;;6.70;4.32;;;;;;;21.24;45.88;95005.22;5121105;27;20032;-76
2023/08/15 00:52:55;;;;;;;4.32;3.92;;;;;;;21.27;45.62;94994.28;5114793;27;20043;-77
2023/08/15 00:55:21;;;;;;;6.63;4.45;;;;;;;21.18;45.78;94980.38;5097340;27;20031;-77
2023/08/15 00:57:46;;;;;;;5.93;4.28;;;;;;;21.25;45.69;94990.19;5123588;27;20023;-77
2023/08/15 01:00:12;;;;;;;5.00;3.85;;;;;;;21.22;45.94;94988.75;5114588;27;20083;-77
2023/08/15 01:02:38;;;;;;;5.28;4.07;;;;;;;21.10;45.49;94977.03;5119149;27;20099;-77
2023/08/15 01:05:05;;;;;;;7.28;4.40;;;;;;;21.17;46.65;94978.75;5094198;28;20050;-76
2023/08/15 01:07:30;;;;;;;4.68;4.15;;;;;;;21.12;47.32;94975.84;5101657;28;20637;-77
2023/08/15 01:09:56;;;;;;;5.22;4.20;;;;;;;21.09;47.08;94981.53;5094180;28;20053;-76
2023/08/15 01:12:22;;;;;;;6.20;4.10;;;;;;;20.94;46.77;94978.09;5094748;28;20043;-77
2023/08/15 01:14:54;;;;;;;6.05;4.20;;;;;;;21.01;46.48;94967.63;5130989;27;20491;-76
2023/08/15 01:17:24;;;;;;;6.70;4.32;;;;;;;20.93;46.03;94966.72;5130660;27;20485;-77
2023/08/15 01:19:50;;;;;;;5.15;3.83;;;;;;;20.98;45.52;94972.25;5109278;28;20622;-77
2023/08/15 01:22:27;;;;;;;5.47;4.20;;;;;;;20.97;45.90;94967.16;5093946;28;20039;-77
2023/08/15 01:24:52;;;;;;;5.88;4.72;;;;;;;20.81;46.06;94962.09;5078390;28;20043;-77
2023/08/15 01:27:18;;;;;;;6.15;4.40;;;;;;;21.05;46.73;94968.88;5093699;28;20039;-76
2023/08/15 01:29:43;;;;;;;5.53;4.50;;;;;;;20.80;47.79;94945.44;5088205;28;20040;-77
2023/08/15 01:32:15;;;;;;;6.10;4.50;;;;;;;20.98;47.12;94968.81;5110544;28;20031;-77
2023/08/15 01:34:52;;;;;;;6.88;4.50;;;;;;;20.93;46.51;94971.19;5111913;28;20027;-77
2023/08/15 01:37:23;;;;;;;4.88;4.35;;;;;;;21.00;49.65;94977.34;5094070;28;20038;-76
2023/08/15 01:39:50;;;;;;;5.45;4.32;;;;;;;21.13;49.92;94980.13;5094118;28;20032;-77
2023/08/15 01:42:15;;;;;;;5.07;4.28;;;;;;;21.10;50.06;94961.19;5110066;28;20108;-76
2023/08/15 01:44:41;;;;;;;5.30;4.13;;;;;;;21.09;48.28;94972.75;5106625;27;20453;-77
2023/08/15 01:47:06;;;;;;;5.15;4.20;;;;;;;20.86;48.28;94954.44;5109288;28;20030;-77
2023/08/15 01:49:31;;;;;;;4.38;3.95;;;;;;;20.89;50.26;94962.00;5110492;28;20034;-77
2023/08/15 01:51:57;;;;;;;5.90;4.38;;;;;;;20.65;51.05;94952.59;5111809;28;20486;-77
2023/08/15 01:54:22;;;;;;;4.90;4.10;;;;;;;20.65;50.53;94961.34;5110478;28;20048;-77
2023/08/15 01:56:48;;;;;;;6.88;4.60;;;;;;;20.63;50.02;94967.81;5123364;27;20413;-77
2023/08/15 01:59:13;;;;;;;5.13;4.07;;;;;;;20.68;50.21;94962.78;5113535;27;20421;-77
2023/08/15 02:01:38;;;;;;;4.72;4.22;;;;;;;20.64;51.22;94945.69;5130851;27;20510;-76
2023/08/15 02:04:04;;;;;;;5.00;4.15;;;;;;;20.80;51.67;94948.09;5131443;27;20040;-77
2023/08/15 02:06:29;;;;;;;6.78;4.68;;;;;;;20.72;48.85;94949.03;5085806;28;20024;-77
2023/08/15 02:08:55;;;;;;;5.47;3.85;;;;;;;20.76;50.17;94946.84;5111768;28;20023;-77
2023/08/15 02:11:20;;;;;;;5.95;4.50;;;;;;;20.79;51.65;94943.84;5110280;28;20032;-77
2023/08/15 02:13:47;;;;;;;4.72;4.00;;;;;;;20.80;51.53;94950.72;5111913;28;20035;-77
2023/08/15 02:16:12;;;;;;;5.45;4.32;;;;;;;20.69;51.71;94940.66;5098916;28;20115;-77
2023/08/15 02:18:37;;;;;;;6.15;4.55;;;;;;;20.61;49.88;94940.78;5116931;28;20035;-77
2023/08/15 02:21:03;;;;;;;6.55;4.25;;;;;;;20.61;48.26;94943.41;5093206;28;20628;-77
2023/08/15 02:23:28;;;;;;;4.85;4.20;;;;;;;20.67;47.82;94953.22;5111717;28;20035;-77
2023/08/15 02:25:53;;;;;;;5.95;4.30;;;;;;;20.51;47.78;94936.59;5106697;28;20043;-77
2023/08/15 02:28:19;;;;;;;5.65;4.22;;;;;;;20.53;48.25;94958.38;5110058;28;20073;-77
2023/08/15 02:30:44;;;;;;;5.15;4.05;;;;;;;20.40;47.83;94939.69;5109956;28;20424;-77
2023/08/15 02:33:10;;;;;;;7.20;4.38;;;;;;;20.46;48.23;94943.41;5092985;28;20027;-77
2023/08/15 02:35:38;;;;;;;5.90;4.15;;;;;;;20.39;47.93;94940.69;5111239;28;20034;-77
2023/08/15 02:38:03;;;;;;;6.07;4.10;;;;;;;20.59;47.07;94948.03;5076131;28;20679;-76
2023/08/15 02:40:29;;;;;;;4.90;3.75;;;;;;;20.63;47.30;94957.25;5109846;28;20035;-77
2023/08/15 02:42:54;;;;;;;4.90;4.10;;;;;;;20.57;47.29;94960.63;5109996;28;20035;-76
2023/08/15 02:45:20;;;;;;;5.32;3.95;;;;;;;20.55;46.91;94954.72;5092892;28;20036;-77
2023/08/15 02:47:45;;;;;;;6.85;4.30;;;;;;;20.55;46.82;94952.88;5096478;28;20037;-77
2023/08/15 02:50:11;;;;;;;5.03;3.80;;;;;;;20.57;46.92;94942.16;5130297;27;20031;-77
2023/08/15 02:52:36;;;;;;;5.95;4.32;;;;;;;20.70;46.52;94944.97;5113316;28;20147;-77
2023/08/15 02:55:02;;;;;;;5.30;4.30;;;;;;;20.53;46.53;94934.63;5115617;27;20110;-77
2023/08/15 02:57:27;;;;;;;4.65;4.15;;;;;;;20.55;46.99;94937.06;5134175;27;20027;-77
2023/08/15 02:59:53;;;;;;;7.05;4.22;;;;;;;20.59;47.55;94926.94;5135379;27;20024;-77
2023/08/15 03:02:18;;;;;;;5.55;4.32;;;;;;;20.36;51.76;94895.41;5134251;27;20035;-76
2023/08/15 03:04:44;;;;;;;5.85;4.30;;;;;;;20.55;49.71;94923.06;5132336;27;20035;-77
2023/08/15 03:07:09;;;;;;;7.47;4.10;;;;;;;20.60;46.65;94941.78;5116871;27;20026;-77
2023/08/15 03:09:34;;;;;;;6.47;4.18;;;;;;;20.37;47.71;94955.09;5112359;28;20050;-77
2023/08/15 03:12:00;;;;;;;5.32;4.22;;;;;;;20.47;47.55;94953.78;5113283;28;20080;-76
2023/08/15 03:14:29;;;;;;;4.78;3.90;;;;;;;20.38;49.23;94941.69;5113415;28;20382;-77
2023/08/15 03:16:54;;;;;;;5.38;4.22;;;;;;;20.42;51.46;94947.41;5113296;28;20493;-76
2023/08/15 03:19:20;;;;;;;5.18;4.28;;;;;;;20.47;50.19;94951.13;5113221;28;20042;-75
2023/08/15 03:21:45;;;;;;;7.28;4.38;;;;;;;20.44;48.78;94943.59;5079312;28;20027;-76
2023/08/15 03:24:11;;;;;;;5.53;4.30;;;;;;;20.25;49.29;94939.72;5114603;28;20159;-76
2023/08/15 03:26:36;;;;;;;5.95;4.07;;;;;;;20.24;49.45;94959.16;5096098;28;20027;-76
2023/08/15 03:29:01;;;;;;;5.97;4.65;;;;;;;20.21;49.08;94959.53;5113382;28;20020;-76
2023/08/15 03:31:27;;;;;;;9.55;7.65;;;;;;;20.14;48.69;94955.16;5096009;28;20024;-77
2023/08/15 03:33:52;;;;;;;9.43;7.00;;;;;;;20.30;50.16;94957.63;5112991;28;20035;-77
2023/08/15 03:36:18;;;;;;;10.50;7.25;;;;;;;20.45;49.05;94947.06;5121331;27;20493;-77
2023/08/15 03:38:43;;;;;;;6.70;4.97;;;;;;;20.55;49.83;94963.44;5133275;27;20039;-76
2023/08/15 03:41:08;;;;;;;8.50;6.10;;;;;;;20.52;49.72;94963.78;5133385;27;20038;-76
2023/08/15 03:43:34;;;;;;;10.88;8.85;;;;;;;20.51;51.66;94962.16;5133518;27;20038;-76
2023/08/15 03:46:00;;;;;;;14.57;11.38;;;;;;;20.53;50.00;94961.00;5094882;28;20474;-75
2023/08/15 03:48:25;;;;;;;11.25;9.05;;;;;;;20.58;50.29;94968.34;5112216;27;20024;-76
2023/08/15 03:50:52;;;;;;;7.00;5.10;;;;;;;20.04;50.07;94961.53;5120574;27;20028;-76
2023/08/15 03:53:18;;;;;;;14.55;11.60;;;;;;;20.01;52.21;94955.81;5095709;28;20409;-77
2023/08/15 03:55:43;;;;;;;14.48;11.98;;;;;;;20.22;53.91;94968.25;5131945;27;20031;-77
2023/08/15 03:58:09;;;;;;;10.48;7.70;;;;;;;20.09;53.59;94966.28;5116026;27;20027;-77
2023/08/15 04:00:34;;;;;;;9.68;6.05;;;;;;;20.04;54.77;94950.19;5133165;27;20261;-76
2023/08/15 04:03:00;;;;;;;6.30;4.35;;;;;;;20.33;52.09;94967.81;5133195;27;20143;-76
2023/08/15 04:05:26;;;;;;;5.93;4.50;;;;;;;20.22;51.65;94971.72;5111449;28;20515;-77
2023/08/15 04:07:51;;;;;;;7.63;3.88;;;;;;;20.08;53.67;94956.72;5110878;28;20028;-76
2023/08/15 04:10:17;;;;;;;6.85;4.20;;;;;;;20.06;53.02;94964.81;5129440;27;20032;-77
2023/08/15 04:12:44;;;;;;;5.10;4.50;;;;;;;20.14;54.66;94963.09;5112396;28;20023;-76
2023/08/15 04:15:09;;;;;;;6.65;4.47;;;;;;;20.05;53.01;94973.72;5113426;28;20064;-77
2023/08/15 04:17:35;;;;;;;6.22;4.55;;;;;;;20.14;52.75;94971.00;5115378;27;20061;-77
2023/08/15 04:20:00;;;;;;;5.63;4.25;;;;;;;20.23;53.19;94969.94;5132669;27;20481;-77
2023/08/15 04:22:26;;;;;;;4.63;4.00;;;;;;;20.21;54.59;94964.81;5133734;27;20076;-77
2023/08/15 04:24:51;;;;;;;4.63;3.70;;;;;;;20.20;55.02;94971.09;5132478;27;20038;-75
2023/08/15 04:27:16;;;;;;;5.13;3.92;;;;;;;20.19;54.56;94966.81;5115321;27;20023;-76
2023/08/15 04:29:43;;;;;;;5.20;4.05;;;;;;;20.29;53.62;94977.09;5132486;27;20028;-76
2023/08/15 04:32:08;;;;;;;5.50;4.20;;;;;;;20.19;53.84;94977.34;5115351;27;20110;-76
2023/08/15 04:34:34;;;;;;;5.28;4.15;;;;;;;20.15;54.62;94948.91;5115303;27;20103;-77
2023/08/15 04:36:59;;;;;;;5.63;3.72;;;;;;;20.25;55.77;94986.38;5132133;27;20038;-76
2023/08/15 04:39:26;;;;;;;6.15;4.47;;;;;;;20.30;56.04;94995.38;5132279;27;20060;-77
2023/08/15 04:41:52;;;;;;;5.45;4.07;;;;;;;20.49;56.06;94990.53;5133379;27;20056;-76
2023/08/15 04:44:17;;;;;;;5.13;3.80;;;;;;;20.43;55.76;94988.66;5095208;27;20027;-77
2023/08/15 04:46:43;;;;;;;5.72;4.47;;;;;;;20.20;55.29;95012.50;5114977;27;20023;-79
2023/08/15 04:49:08;;;;;;;5.15;4.20;;;;;;;20.34;54.01;94997.63;5116367;27;20413;-79
2023/08/15 04:51:34;;;;;;;5.45;4.18;;;;;;;20.35;54.30;94997.47;5117907;27;20507;-78
2023/08/15 04:53:59;;;;;;;5.97;3.72;;;;;;;20.32;55.50;95005.75;5114805;27;20066;-79
2023/08/15 04:56:24;;;;;;;5.10;4.03;;;;;;;19.99;56.07;94977.09;5122005;27;20020;-79
2023/08/15 04:58:50;;;;;;;5.55;4.03;;;;;;;20.44;55.46;95003.47;5111675;28;20486;-79
2023/08/15 05:01:15;;;;;;;5.07;4.40;;;;;;;20.42;56.71;95011.56;5094493;28;20035;-80
2023/08/15 05:03:41;;;;;;;5.57;4.18;;;;;;;20.44;55.82;95008.72;5113074;28;20464;-79
2023/08/15 05:06:06;;;;;;;6.47;4.22;;;;;;;20.47;56.86;95014.44;5077464;28;20142;-79
2023/08/15 05:08:31;;;;;;;5.45;4.00;;;;;;;20.51;56.93;95015.75;5104947;27;20023;-80
2023/08/15 05:10:57;;;;;;;5.57;4.10;;;;;;;20.53;56.48;95007.66;5132877;27;20034;-79
2023/08/15 05:13:22;;;;;;;6.28;4.00;;;;;;;20.43;57.20;95015.03;5133368;27;20034;-80
2023/08/15 05:15:48;;;;;;;4.55;3.90;;;;;;;20.48;56.85;95010.84;5132606;27;20080;-79
2023/08/15 05:18:15;;;;;;;4.10;3.70;;;;;;;20.55;57.29;95018.03;5131737;27;20043;-79
2023/08/15 05:20:41;;;;;;;4.70;3.80;;;;;;;20.65;56.25;95022.03;5110618;28;20035;-79
2023/08/15 05:23:07;;;;;;;5.57;3.75;;;;;;;20.71;56.67;95023.94;5088746;27;20472;-79
2023/08/15 05:25:32;;;;;;;4.07;3.50;;;;;;;20.70;56.48;95034.69;5131170;27;20054;-78
2023/08/15 05:27:58;;;;;;;9.18;4.00;;;;;;;20.62;56.42;95034.78;5114471;27;20031;-79
2023/08/15 05:30:24;;;;;;;5.05;4.00;;;;;;;20.67;57.14;95035.03;5131384;27;20050;-80
2023/08/15 05:32:49;;;;;;;5.60;3.80;;;;;;;20.57;56.92;95023.97;5130884;27;20023;-79
2023/08/15 05:35:14;;;;;;;5.30;3.60;;;;;;;20.53;56.49;95021.69;5132473;27;20503;-79
2023/08/15 05:37:40;;;;;;;4.90;3.60;;;;;;;20.68;56.90;95026.94;5132725;27;20038;-79
2023/08/15 05:40:06;;;;;;;5.75;4.07;;;;;;;20.73;55.71;95031.69;5097101;27;20028;-79
2023/08/15 05:42:31;;;;;;;4.30;3.83;;;;;;;20.81;56.70;95031.59;5131373;27;20118;-79
2023/08/15 05:44:57;;;;;;;6.22;3.67;;;;;;;20.85;57.17;95032.84;5121479;27;20031;-79
2023/08/15 05:47:22;;;;;;;4.78;3.85;;;;;;;20.69;56.36;95033.03;5102034;27;20412;-79
2023/08/15 05:49:47;;;;;;;4.65;3.97;;;;;;;20.79;56.76;95024.84;5113740;27;20288;-79
2023/08/15 05:52:13;;;;;;;5.72;3.90;;;;;;;20.82;56.75;95030.56;5113571;27;20027;-79
2023/08/15 05:54:38;;;;;;;7.90;4.00;;;;;;;20.73;56.72;95021.94;5112940;28;20500;-79
2023/08/15 05:57:05;;;;;;;7.40;3.97;;;;;;;20.62;57.22;95016.31;5092527;28;20425;-79
2023/08/15 05:59:30;;;;;;;5.72;3.85;;;;;;;20.60;57.20;95032.31;5109132;28;20118;-79
2023/08/15 06:01:55;;;;;;;4.65;3.67;;;;;;;20.79;56.95;95030.94;5098985;27;20032;-79
2023/08/15 06:04:21;;;;;;;5.35;3.88;;;;;;;20.81;55.74;95033.38;5130646;27;20389;-80
2023/08/15 06:06:46;;;;;;;4.68;3.90;;;;;;;20.65;57.45;95008.03;5113703;28;20026;-80
2023/08/15 06:09:12;;;;;;;7.43;3.80;;;;;;;20.79;57.80;95030.94;5113611;28;20031;-82
2023/08/15 06:11:37;;;;;;;4.93;3.80;;;;;;;20.87;57.86;95024.75;5132093;27;20027;-82
2023/08/15 06:14:03;;;;;;;5.40;3.67;;;;;;;20.94;56.27;95031.72;5130783;28;20027;-81
2023/08/15 06:16:28;;;;;;;4.68;3.60;;;;;;;20.99;56.58;95039.09;5126093;28;20038;-82
2023/08/15 06:18:54;;;;;;;6.28;4.43;;;;;;;20.77;56.94;95029.47;5130382;28;20051;-82
2023/08/15 06:21:19;;;;;;;5.90;4.10;;;;;;;20.76;56.65;95010.19;5130870;28;20023;-82
2023/08/15 06:23:44;;;;;;;7.03;4.13;;;;;;;20.84;56.10;95036.50;5132359;27;20038;-81
2023/08/15 06:26:10;;;;;;;8.38;4.30;;;;;;;20.92;56.42;95028.47;5132199;27;20315;-81
2023/08/15 06:28:35;;;;;;;6.95;4.10;;;;;;;20.82;54.27;95035.84;5129627;27;20480;-82
2023/08/15 06:31:01;;;;;;;8.73;3.85;;;;;;;20.83;54.35;95032.19;5117905;27;20027;-82
2023/08/15 06:33:26;;;;;;;5.45;4.03;;;;;;;20.73;54.13;95029.84;5135032;27;20031;-81
2023/08/15 06:35:52;;;;;;;6.57;3.83;;;;;;;20.77;53.85;95024.22;5134702;27;20023;-81
2023/08/15 06:38:17;;;;;;;6.47;3.88;;;;;;;20.85;53.96;95046.03;5135052;27;20099;-81
2023/08/15 06:40:43;;;;;;;5.22;3.97;;;;;;;20.74;53.83;95041.22;5134753;27;20041;-81
2023/08/15 06:43:08;;;;;;;6.97;3.65;;;;;;;20.69;53.57;95038.31;5136227;27;20037;-81
2023/08/15 06:45:36;;;;;;;5.63;3.70;;;;;;;20.66;53.74;95043.97;5117371;27;20031;-81
2023/08/15 06:48:02;;;;;;;4.22;3.83;;;;;;;20.72;53.72;95049.31;5134763;27;20500;-81
2023/08/15 06:50:28;;;;;;;4.72;3.42;;;;;;;20.72;53.56;95049.31;5134652;27;20050;-81
2023/08/15 06:52:53;;;;;;;6.32;3.83;;;;;;;20.79;53.78;95049.41;5100112;27;20322;-82
2023/08/15 06:55:19;;;;;;;7.78;3.70;;;;;;;20.92;53.29;95054.88;5134436;27;20436;-81
2023/08/15 06:57:44;;;;;;;4.05;3.65;;;;;;;20.90;53.04;95025.19;5117347;27;20077;-81
2023/08/15 07:00:11;;;;;;;6.03;3.40;;;;;;;21.05;52.11;95032.25;5135962;27;20060;-82
2023/08/15 07:02:37;;;;;;;5.55;3.80;;;;;;;21.08;53.29;95042.44;5134453;27;20035;-82
2023/08/15 07:05:04;;;;;;;4.88;3.70;;;;;;;20.94;53.58;95046.75;5134083;27;20492;-81
2023/08/15 07:07:29;;;;;;;6.13;3.63;;;;;;;21.06;52.44;95049.72;5135558;27;20296;-82
2023/08/15 07:09:55;;;;;;;4.43;3.50;;;;;;;21.07;52.23;95043.44;5135405;27;20025;-81
2023/08/15 07:12:20;;;;;;;5.45;3.90;;;;;;;21.00;53.04;95045.19;5117019;27;20480;-83
2023/08/15 07:14:46;;;;;;;4.45;3.85;;;;;;;20.92;54.78;95049.59;5133995;27;20489;-81
2023/08/15 07:17:11;;;;;;;5.38;4.07;;;;;;;21.05;53.53;95040.16;5135389;27;20023;-81
2023/08/15 07:19:37;;;;;;;5.03;4.03;;;;;;;21.28;54.30;95048.72;5099981;27;20117;-81
2023/08/15 07:22:03;;;;;;;8.18;4.13;;;;;;;21.46;54.36;95044.91;5133952;27;20046;-81
2023/08/15 07:24:28;;;;;;;5.43;4.32;;;;;;;21.42;54.56;95057.66;5135069;27;20023;-80
2023/08/15 07:26:54;;;;;;;5.47;3.90;;;;;;;21.22;55.50;95060.06;5117103;27;20027;-81
2023/08/15 07:29:19;;;;;;;5.82;4.15;;;;;;;21.15;55.35;95053.91;5133986;27;20493;-81
2023/08/15 07:31:45;;;;;;;6.03;4.10;;;;;;;21.31;55.32;95053.69;5133894;27;20056;-81
2023/08/15 07:34:10;;;;;;;6.40;4.53;;;;;;;21.32;55.36;95043.91;5116494;27;20027;-81
2023/08/15 07:36:36;;;;;;;5.60;4.15;;;;;;;21.36;55.31;95056.53;5133655;27;20019;-86
2023/08/15 07:39:01;;;;;;;6.18;4.00;;;;;;;21.25;55.10;95053.59;5116482;27;20416;-83
2023/08/15 07:41:27;;;;;;;8.98;4.32;;;;;;;21.21;54.84;95061.06;5132387;27;20027;-83
2023/08/15 07:43:52;;;;;;;5.70;4.60;;;;;;;21.15;55.36;95064.47;5116408;27;20027;-83
2023/08/15 07:46:17;;;;;;;6.25;4.45;;;;;;;21.04;55.16;95047.28;5134758;27;20035;-83
2023/08/15 07:48:43;;;;;;;6.50;4.75;;;;;;;21.13;55.64;95061.19;5133611;27;20023;-82
2023/08/15 07:51:09;;;;;;;5.95;4.35;;;;;;;21.10;55.64;95058.91;5133390;27;20066;-82
2023/08/15 07:53:35;;;;;;;5.30;4.28;;;;;;;21.11;55.76;95052.63;5116114;27;20050;-81
2023/08/15 07:56:00;;;;;;;11.02;4.70;;;;;;;21.04;55.99;95052.56;5116229;27;20026;-83
2023/08/15 07:58:26;;;;;;;5.63;4.25;;;;;;;21.14;55.92;95039.84;5134411;27;20034;-83
2023/08/15 08:00:51;;;;;;;7.45;4.72;;;;;;;21.15;55.96;95043.34;5116181;27;20404;-83
2023/08/15 08:03:16;;;;;;;9.15;4.90;;;;;;;21.08;56.26;95051.16;5115949;27;20515;-83
2023/08/15 08:05:42;;;;;;;10.43;4.78;;;;;;;21.09;56.47;95059.91;5115890;27;20027;-83
2023/08/15 08:08:08;;;;;;;5.88;4.38;;;;;;;21.08;55.93;95053.00;5116029;27;20035;-82
2023/08/15 08:10:33;;;;;;;6.78;4.85;;;;;;;21.08;55.95;95056.44;5115933;27;20105;-82
2023/08/15 08:13:01;;;;;;;7.25;4.40;;;;;;;21.02;56.18;95053.75;5132742;27;20043;-82
2023/08/15 08:15:27;;;;;;;7.15;4.68;;;;;;;21.08;55.80;95042.44;5133071;27;20027;-83
2023/08/15 08:17:53;;;;;;;6.10;4.63;;;;;;;21.20;55.98;95035.66;5098937;27;20429;-83
2023/08/15 08:20:19;;;;;;;7.00;4.65;;;;;;;20.95;56.72;95045.75;5133017;27;20068;-80
2023/08/15 08:22:44;;;;;;;7.43;4.47;;;;;;;20.93;57.13;95047.75;5115727;27;20031;-82
2023/08/15 08:25:21;;;;;;;7.90;4.35;;;;;;;20.93;57.19;95050.41;5133028;27;20031;-83
2023/08/15 08:27:47;;;;;;;6.68;4.28;;;;;;;20.71;57.66;95029.22;5132730;27;20038;-82
2023/08/15 08:30:13;;;;;;;8.15;4.97;;;;;;;20.86;58.19;95049.47;5098623;27;20027;-78
2023/08/15 08:32:38;;;;;;;8.57;5.38;;;;;;;20.72;58.32;95037.94;5132482;27;20062;-77
2023/08/15 08:35:05;;;;;;;10.38;5.22;;;;;;;20.77;58.31;95045.31;5132471;27;20488;-80
2023/08/15 08:37:31;;;;;;;6.97;4.70;;;;;;;20.83;58.53;95052.50;5134032;27;20114;-79
2023/08/15 08:39:57;;;;;;;6.22;4.72;;;;;;;20.84;58.19;95039.13;5115589;27;20023;-79
2023/08/15 08:42:22;;;;;;;6.72;4.88;;;;;;;20.86;58.15;95047.66;5115300;27;20407;-79
2023/08/15 08:44:48;;;;;;;7.18;5.05;;;;;;;20.92;58.37;95040.81;5132432;27;20027;-78
2023/08/15 08:47:14;;;;;;;7.47;4.80;;;;;;;21.03;58.78;95047.44;5098207;27;20092;-79
2023/08/15 08:49:39;;;;;;;6.38;4.82;;;;;;;21.01;58.41;95041.56;5115493;27;20031;-80
2023/08/15 08:52:05;;;;;;;5.68;4.72;;;;;;;20.82;57.84;95019.19;5114834;27;20035;-79
2023/08/15 08:54:30;;;;;;;7.38;5.07;;;;;;;20.85;58.05;95038.13;5134151;27;20461;-79
2023/08/15 08:56:56;;;;;;;5.60;4.80;;;;;;;20.92;57.45;95043.47;5115123;27;20031;-79
2023/08/15 08:59:23;;;;;;;11.32;5.28;;;;;;;20.92;57.37;95040.81;5115011;27;20035;-79
2023/08/15 09:01:49;;;;;;;7.95;5.18;;;;;;;20.77;57.33;95011.00;5114963;27;20078;-79
2023/08/15 09:04:17;;;;;;;5.68;4.80;;;;;;;21.30;57.22;95027.44;5132189;27;20018;-79
2023/08/15 09:06:43;;;;;;;9.07;5.20;;;;;;;21.33;57.19;95032.34;5115081;27;20063;-79
2023/08/15 09:09:09;;;;;;;7.55;5.60;;;;;;;21.06;57.28;95033.88;5131950;27;20080;-79
2023/08/15 09:11:35;;;;;;;8.32;5.88;;;;;;;21.00;57.70;95040.72;5115342;27;20183;-79
2023/08/15 09:14:04;;;;;;;7.03;5.13;;;;;;;21.00;57.48;95034.63;5131895;27;20524;-79
2023/08/15 09:16:30;;;;;;;7.60;5.40;;;;;;;21.01;57.84;95038.91;5114992;27;20031;-79
2023/08/15 09:18:56;;;;;;;8.65;5.32;;;;;;;20.96;57.81;95048.19;5098014;27;20031;-79
2023/08/15 09:21:23;;;;;;;7.10;5.32;;;;;;;21.09;57.51;95046.69;5131781;27;20050;-79
2023/08/15 09:23:48;;;;;;;8.85;5.60;;;;;;;21.32;57.49;95039.44;5132044;27;20031;-80
2023/08/15 09:26:14;;;;;;;9.05;4.93;;;;;;;21.47;57.29;95039.41;5114579;27;20577;-79
2023/08/15 09:28:40;;;;;;;9.48;4.75;;;;;;;21.45;56.74;95032.69;5132014;27;20027;-78
2023/08/15 09:31:06;;;;;;;6.28;5.05;;;;;;;21.24;56.59;95021.06;5097422;27;20023;-78
2023/08/15 09:33:32;;;;;;;6.22;4.82;;;;;;;21.36;56.87;95032.75;5114796;27;20134;-79
2023/08/15 09:35:58;;;;;;;7.28;5.18;;;;;;;21.29;57.20;95031.09;5114263;27;20024;-81
2023/08/15 09:38:23;;;;;;;6.90;5.32;;;;;;;21.32;57.70;95028.06;5131679;27;20035;-80
2023/08/15 09:40:49;;;;;;;7.80;5.53;;;;;;;21.24;57.99;95020.25;5114221;27;20032;-80
2023/08/15 09:43:17;;;;;;;8.63;5.30;;;;;;;21.35;56.81;95020.56;5114314;27;20463;-80
2023/08/15 09:45:42;;;;;;;10.13;4.90;;;;;;;21.33;57.28;95009.38;5131279;27;20077;-80
2023/08/15 09:48:08;;;;;;;6.40;5.30;;;;;;;21.46;56.96;95007.91;5131333;27;20409;-80
2023/08/15 09:50:33;;;;;;;6.80;4.93;;;;;;;21.65;56.34;95015.19;5114076;27;20019;-79
2023/08/15 09:52:59;;;;;;;8.25;4.93;;;;;;;21.77;56.08;95016.31;5113882;27;20051;-80
2023/08/15 09:55:25;;;;;;;9.57;5.47;;;;;;;21.51;56.88;95011.63;5114104;27;20404;-79
2023/08/15 09:57:50;;;;;;;7.93;5.15;;;;;;;21.57;56.54;95020.59;5114105;27;20035;-80
2023/08/15 10:00:17;;;;;;;6.47;5.40;;;;;;;21.65;56.55;95009.91;5097045;27;20050;-79
2023/08/15 10:02:48;;;;;;;8.23;5.38;;;;;;;21.58;56.26;95012.47;5132484;27;20118;-80
2023/08/15 10:05:13;;;;;;;9.48;4.88;;;;;;;21.51;56.60;94994.94;5113747;27;20027;-80
2023/08/15 10:07:40;;;;;;;9.13;5.15;;;;;;;21.63;56.86;95014.56;5113835;28;20073;-80
2023/08/15 10:10:06;;;;;;;7.22;5.68;;;;;;;21.44;57.43;95015.19;5113767;28;20023;-79
2023/08/15 10:12:32;;;;;;;7.57;5.38;;;;;;;21.34;57.40;95016.31;5131017;28;20477;-80
2023/08/15 10:14:58;;;;;;;8.85;5.30;;;;;;;21.32;57.59;95018.31;5113745;28;20099;-80
2023/08/15 10:17:28;;;;;;;7.72;5.43;;;;;;;21.62;57.30;95007.66;5113980;28;20064;-80
2023/08/15 10:19:54;;;;;;;8.70;5.63;;;;;;;21.53;57.09;95014.88;5096689;28;20397;-79
2023/08/15 10:22:19;;;;;;;9.80;6.50;;;;;;;21.48;57.17;95012.00;5130872;28;20495;-80
2023/08/15 10:24:45;;;;;;;9.60;5.80;;;;;;;21.42;57.58;95023.31;5130998;28;20031;-80
2023/08/15 10:27:12;;;;;;;10.77;6.20;;;;;;;21.40;57.43;95010.28;5130620;27;20031;-80
2023/08/15 10:29:58;;;;;;;10.25;5.72;;;;;;;21.44;57.54;95020.47;5131871;27;20023;-80
2023/08/15 10:32:25;;;;;;;8.20;5.43;;;;;;;21.55;57.44;95023.44;5131606;27;20519;-80
2023/08/15 10:34:57;;;;;;;6.38;4.80;;;;;;;21.60;58.33;95021.03;5096676;28;20445;-79
2023/08/15 10:37:30;;;;;;;8.82;5.63;;;;;;;21.62;57.81;95028.78;5130923;28;20469;-80
2023/08/15 10:40:27;;;;;;;8.57;5.38;;;;;;;21.55;56.87;95017.34;5130660;28;20458;-80
2023/08/15 10:43:01;;;;;;;7.65;5.50;;;;;;;21.70;56.69;95023.34;5100968;28;20424;-80
2023/08/15 10:45:30;;;;;;;9.07;5.10;;;;;;;21.70;56.38;95020.69;5131813;27;20039;-79
2023/08/15 10:47:56;;;;;;;6.18;5.28;;;;;;;21.77;56.00;95018.13;5096380;28;20039;-80
2023/08/15 10:50:22;;;;;;;6.47;5.28;;;;;;;21.70;55.89;95015.41;5113358;28;20035;-79
2023/08/15 10:53:00;;;;;;;7.03;5.10;;;;;;;21.98;56.04;95019.91;5113338;28;20117;-81
2023/08/15 10:55:27;;;;;;;7.70;5.20;;;;;;;21.94;55.35;95027.41;5096587;28;20026;-80
2023/08/15 10:57:54;;;;;;;8.82;5.43;;;;;;;22.01;55.29;95030.94;5113455;28;20424;-80
2023/08/15 11:00:21;;;;;;;8.45;5.18;;;;;;;22.22;56.12;95024.78;5113270;28;20092;-80
2023/08/15 11:02:47;;;;;;;6.93;5.40;;;;;;;22.24;55.59;95029.91;5096388;28;20028;-80
2023/08/15 11:05:13;;;;;;;7.57;5.18;;;;;;;22.28;55.73;95029.28;5130356;27;20076;-80
2023/08/15 11:07:41;;;;;;;8.23;5.38;;;;;;;22.33;55.77;95030.56;5096145;28;20035;-80
2023/08/15 11:10:08;;;;;;;10.77;5.78;;;;;;;22.35;55.56;95032.00;5113708;28;20035;-79
2023/08/15 11:12:33;;;;;;;8.40;5.90;;;;;;;22.39;54.87;95029.78;5130218;28;20035;-80
2023/08/15 11:14:59;;;;;;;5.65;5.00;;;;;;;22.36;55.17;95030.97;5096942;27;20030;-78
2023/08/15 11:17:25;;;;;;;5.07;4.53;;;;;;;22.54;53.22;95022.53;5134177;27;20031;-79
2023/08/15 11:19:50;;;;;;;5.93;5.13;;;;;;;22.47;54.44;95030.44;5134138;27;20549;-79
2023/08/15 11:22:16;;;;;;;5.22;4.70;;;;;;;22.56;54.20;95020.50;5116916;27;20031;-80
2023/08/15 11:24:41;;;;;;;8.02;4.35;;;;;;;22.50;53.57;95016.81;5134021;27;20086;-79
2023/08/15 11:27:07;;;;;;;7.25;4.70;;;;;;;22.68;52.04;95013.66;5099700;27;20092;-80
2023/08/15 11:29:32;;;;;;;6.32;4.95;;;;;;;22.71;52.34;95017.72;5099723;27;20038;-80